Time;durP1;ratioP1;P1;durP2;ratioP2;P2;SDS_P1;SDS_P2;PMS_P1;PMS_P2;Temp;Humidity;BMP_temperature;BMP_pressure;BME280_temperature;BME280_humidity;BME280_pressure;Samples;Min_cycle;Max_cycle;Signal;HPM_P1;HPM_P2
2021/12/07 00:01:36;;;;;;;6.40;5.57;;;;;;;;;;4975106;28;98449;-66
2021/12/07 00:04:03;;;;;;;5.90;4.90;;;;;;;;;;4973426;28;93347;-66
2021/12/07 00:06:29;;;;;;;5.97;5.30;;;;;;;;;;4974135;28;92411;-66
2021/12/07 00:08:56;;;;;;;5.35;4.82;;;;;;;;;;4949559;28;92490;-66
2021/12/07 00:11:24;;;;;;;5.22;4.72;;;;;;;;;;4974621;28;93795;-66
2021/12/07 00:13:51;;;;;;;6.15;5.55;;;;;;;;;;4970494;28;92467;-65
2021/12/07 00:16:19;;;;;;;8.60;5.75;;;;;;;;;;4956621;28;94135;-65
2021/12/07 00:18:46;;;;;;;7.10;5.60;;;;;;;;;;4974185;28;93870;-65
2021/12/07 00:21:16;;;;;;;6.03;5.43;;;;;;;;;;4977334;28;92834;-65
2021/12/07 00:23:42;;;;;;;6.30;5.70;;;;;;;;;;4972994;28;94945;-66
2021/12/07 00:26:22;;;;;;;7.25;6.15;;;;;;;;;;4964924;28;92382;-65
2021/12/07 00:28:50;;;;;;;6.85;5.75;;;;;;;;;;4975206;28;94083;-65
2021/12/07 00:31:30;;;;;;;6.78;6.07;;;;;;;;;;4972362;28;92457;-65
2021/12/07 00:36:35;;;;;;;7.32;5.95;;;;;;;;;;4973889;28;92419;-65
2021/12/07 00:39:03;;;;;;;7.78;6.43;;;;;;;;;;4974034;28;92486;-66
2021/12/07 00:41:29;;;;;;;7.30;6.18;;;;;;;;;;4974373;28;91731;-65
2021/12/07 00:43:56;;;;;;;8.38;7.32;;;;;;;;;;4976859;28;92450;-65
2021/12/07 00:46:24;;;;;;;7.93;6.85;;;;;;;;;;4973851;28;92528;-66
2021/12/07 00:48:50;;;;;;;7.88;6.95;;;;;;;;;;4972722;28;95674;-66
2021/12/07 00:51:16;;;;;;;8.00;7.00;;;;;;;;;;4971866;28;93492;-66
2021/12/07 00:53:43;;;;;;;9.35;7.15;;;;;;;;;;4973304;28;92395;-65
2021/12/07 00:56:09;;;;;;;8.82;7.50;;;;;;;;;;4974135;28;92402;-66
2021/12/07 00:58:35;;;;;;;10.43;7.55;;;;;;;;;;4972938;28;94043;-66
2021/12/07 01:01:06;;;;;;;9.40;7.45;;;;;;;;;;4973217;28;92876;-65
2021/12/07 01:03:33;;;;;;;10.25;8.07;;;;;;;;;;4972757;28;92499;-65
2021/12/07 01:25:20;;;;;;;15.73;9.27;;;;;;;;;;4973622;28;92414;-65
2021/12/07 01:27:49;;;;;;;12.45;9.45;;;;;;;;;;4958913;28;92508;-65
2021/12/07 01:30:30;;;;;;;14.48;9.60;;;;;;;;;;4973782;28;92967;-66
2021/12/07 01:59:33;;;;;;;18.73;12.20;;;;;;;;;;4974989;28;93307;-66
2021/12/07 02:02:01;;;;;;;19.48;12.32;;;;;;;;;;4974110;28;93902;-66
2021/12/07 02:04:28;;;;;;;16.88;12.07;;;;;;;;;;4957227;28;92565;-66
2021/12/07 02:06:54;;;;;;;22.83;12.90;;;;;;;;;;4972974;28;94833;-65
2021/12/07 02:09:21;;;;;;;17.10;12.32;;;;;;;;;;4974648;28;94902;-65
2021/12/07 02:11:50;;;;;;;19.95;12.30;;;;;;;;;;4974812;28;92462;-66
2021/12/07 02:14:17;;;;;;;16.90;11.63;;;;;;;;;;4977810;28;93344;-65
2021/12/07 02:17:21;;;;;;;20.27;12.63;;;;;;;;;;4974230;28;92477;-66
2021/12/07 02:19:48;;;;;;;19.15;11.80;;;;;;;;;;4875173;28;93322;-66
2021/12/07 02:22:14;;;;;;;20.65;12.48;;;;;;;;;;4875715;28;95010;-65
2021/12/07 02:24:40;;;;;;;24.30;11.15;;;;;;;;;;4876635;28;93069;-66
2021/12/07 02:27:07;;;;;;;16.90;11.57;;;;;;;;;;4875466;28;92503;-66
2021/12/07 02:29:33;;;;;;;24.25;12.10;;;;;;;;;;4875518;28;94819;-65
2021/12/07 02:32:01;;;;;;;19.02;11.75;;;;;;;;;;4873700;28;94967;-66
2021/12/07 02:34:27;;;;;;;24.10;12.18;;;;;;;;;;4859118;28;96178;-66
2021/12/07 02:36:54;;;;;;;20.83;11.65;;;;;;;;;;4878171;28;97035;-65
2021/12/07 02:39:28;;;;;;;19.67;10.60;;;;;;;;;;4876172;28;92406;-65
2021/12/07 02:41:54;;;;;;;24.48;10.70;;;;;;;;;;4858763;28;92521;-66
2021/12/07 02:44:21;;;;;;;13.95;10.07;;;;;;;;;;4874733;28;93923;-66
2021/12/07 02:46:47;;;;;;;25.67;9.88;;;;;;;;;;4874574;28;93738;-66
2021/12/07 02:49:13;;;;;;;24.55;9.77;;;;;;;;;;4837487;28;1152175;-66
2021/12/07 02:51:40;;;;;;;25.83;9.05;;;;;;;;;;4879169;28;92479;-66
2021/12/07 02:54:06;;;;;;;20.80;8.70;;;;;;;;;;4931590;28;93371;-66
2021/12/07 02:56:32;;;;;;;31.13;8.23;;;;;;;;;;4973610;28;94945;-66
2021/12/07 02:59:02;;;;;;;18.92;6.95;;;;;;;;;;4979285;28;92573;-65
2021/12/07 03:01:32;;;;;;;19.25;7.68;;;;;;;;;;4974613;28;93728;-65
2021/12/07 03:04:16;;;;;;;20.48;6.95;;;;;;;;;;4975097;28;92366;-65
2021/12/07 03:06:53;;;;;;;32.75;7.07;;;;;;;;;;4975220;28;93518;-65
2021/12/07 03:28:32;;;;;;;14.48;3.05;;;;;;;;;;4975146;28;93306;-65
2021/12/07 03:30:58;;;;;;;12.35;3.20;;;;;;;;;;4972550;28;93700;-65
2021/12/07 03:33:25;;;;;;;20.40;2.67;;;;;;;;;;4975457;28;92433;-65
2021/12/07 03:35:51;;;;;;;10.13;2.42;;;;;;;;;;4975489;28;93479;-65
2021/12/07 03:38:17;;;;;;;17.38;2.72;;;;;;;;;;4974910;28;93190;-65
2021/12/07 03:40:44;;;;;;;14.80;3.00;;;;;;;;;;4975663;28;91788;-65
2021/12/07 03:43:12;;;;;;;14.60;2.47;;;;;;;;;;4977492;28;92639;-65
2021/12/07 03:45:38;;;;;;;15.25;1.98;;;;;;;;;;4974894;28;92751;-65
2021/12/07 03:48:05;;;;;;;12.98;2.35;;;;;;;;;;4973205;28;94910;-65
2021/12/07 03:50:32;;;;;;;13.50;2.58;;;;;;;;;;4973329;28;93444;-65
2021/12/07 03:52:58;;;;;;;14.68;2.30;;;;;;;;;;4974925;28;92754;-65
2021/12/07 03:55:24;;;;;;;10.93;1.88;;;;;;;;;;4975627;28;93082;-65
2021/12/07 03:57:51;;;;;;;9.95;1.55;;;;;;;;;;4973173;28;93178;-65
2021/12/07 04:00:18;;;;;;;12.68;2.47;;;;;;;;;;4973802;28;92772;-65
2021/12/07 04:02:45;;;;;;;17.33;2.63;;;;;;;;;;4974884;28;93187;-65
2021/12/07 04:05:15;;;;;;;8.88;2.05;;;;;;;;;;4976837;28;91694;-65
2021/12/07 04:07:42;;;;;;;21.73;2.13;;;;;;;;;;4975081;28;95053;-65
2021/12/07 04:10:10;;;;;;;16.90;2.10;;;;;;;;;;4973752;28;92680;-65
2021/12/07 04:12:36;;;;;;;11.48;2.25;;;;;;;;;;4972914;28;94878;-65
2021/12/07 04:15:04;;;;;;;17.27;1.50;;;;;;;;;;4970922;28;94333;-65
2021/12/07 04:17:31;;;;;;;21.40;3.10;;;;;;;;;;4974982;28;93473;-66
2021/12/07 04:19:57;;;;;;;22.85;3.05;;;;;;;;;;4956639;28;92420;-65
2021/12/07 04:22:24;;;;;;;13.18;2.17;;;;;;;;;;4974925;28;93268;-65
2021/12/07 04:24:50;;;;;;;14.52;2.15;;;;;;;;;;4956777;28;92493;-65
2021/12/07 04:27:16;;;;;;;14.32;1.92;;;;;;;;;;4966416;28;92449;-66
2021/12/07 04:29:43;;;;;;;9.30;2.00;;;;;;;;;;4973727;28;92532;-65
2021/12/07 04:32:09;;;;;;;11.00;1.83;;;;;;;;;;4973639;28;92573;-65
2021/12/07 04:34:36;;;;;;;25.65;2.47;;;;;;;;;;4974767;28;94521;-65
2021/12/07 04:37:02;;;;;;;10.77;1.92;;;;;;;;;;4971567;28;94832;-65
2021/12/07 04:39:29;;;;;;;11.45;2.35;;;;;;;;;;4974284;28;92531;-65
2021/12/07 04:41:55;;;;;;;10.23;2.17;;;;;;;;;;4973989;28;93178;-65
2021/12/07 04:44:22;;;;;;;19.08;2.28;;;;;;;;;;4972563;28;93547;-65
2021/12/07 04:57:44;;;;;;;12.77;2.03;;;;;;;;;;4973359;28;92471;-65
2021/12/07 05:00:14;;;;;;;10.07;2.47;;;;;;;;;;4973830;28;92751;-65
2021/12/07 05:02:43;;;;;;;16.15;2.30;;;;;;;;;;4964978;28;94702;-65
2021/12/07 05:05:11;;;;;;;8.75;2.50;;;;;;;;;;4973360;28;93360;-65
2021/12/07 05:07:43;;;;;;;17.75;2.58;;;;;;;;;;4973391;28;93433;-65
2021/12/07 05:10:17;;;;;;;10.60;2.72;;;;;;;;;;4973837;28;93209;-65
2021/12/07 05:12:58;;;;;;;16.88;3.03;;;;;;;;;;4959989;28;92525;-65
2021/12/07 05:15:33;;;;;;;39.30;4.20;;;;;;;;;;4955919;28;93251;-65
2021/12/07 05:39:49;;;;;;;11.98;2.80;;;;;;;;;;4888177;28;93622;-65
2021/12/07 05:42:16;;;;;;;13.75;2.63;;;;;;;;;;4893436;28;92519;-65
2021/12/07 05:44:42;;;;;;;23.30;3.42;;;;;;;;;;4894042;28;93607;-65
2021/12/07 05:47:09;;;;;;;11.02;3.05;;;;;;;;;;4892512;28;93382;-65
2021/12/07 05:49:40;;;;;;;18.35;4.32;;;;;;;;;;4888025;28;92613;-66
2021/12/07 05:52:06;;;;;;;20.65;3.65;;;;;;;;;;4891727;28;93076;-65
2021/12/07 05:54:33;;;;;;;13.48;3.20;;;;;;;;;;4892014;28;97314;-65
2021/12/07 05:56:59;;;;;;;21.92;3.80;;;;;;;;;;4894577;28;93268;-65
2021/12/07 05:59:25;;;;;;;19.27;4.45;;;;;;;;;;4892732;28;96689;-65
2021/12/07 06:01:52;;;;;;;19.08;4.82;;;;;;;;;;4928015;28;92634;-65
2021/12/07 06:04:19;;;;;;;22.65;5.55;;;;;;;;;;4955532;28;92440;-65
2021/12/07 06:06:45;;;;;;;24.88;5.15;;;;;;;;;;4972622;28;93644;-65
2021/12/07 06:09:11;;;;;;;17.65;5.35;;;;;;;;;;4973104;28;92468;-65
2021/12/07 06:11:38;;;;;;;23.98;6.10;;;;;;;;;;4973816;28;93127;-65
2021/12/07 06:14:04;;;;;;;23.05;5.63;;;;;;;;;;4972591;28;94109;-65
2021/12/07 06:16:31;;;;;;;14.65;4.95;;;;;;;;;;4972549;28;92578;-65
2021/12/07 06:18:58;;;;;;;25.00;4.65;;;;;;;;;;4974333;28;94847;-65
2021/12/07 06:21:26;;;;;;;13.30;4.15;;;;;;;;;;4972906;28;92441;-65
2021/12/07 06:23:52;;;;;;;19.52;3.95;;;;;;;;;;4954767;28;93364;-65
2021/12/07 06:26:19;;;;;;;15.65;3.70;;;;;;;;;;4973003;28;92599;-65
2021/12/07 06:28:45;;;;;;;17.00;3.88;;;;;;;;;;4973670;28;92495;-65
2021/12/07 06:31:12;;;;;;;17.80;4.63;;;;;;;;;;4976210;28;92459;-65
2021/12/07 06:33:38;;;;;;;23.38;4.47;;;;;;;;;;4958422;28;93823;-65
2021/12/07 06:36:05;;;;;;;23.77;4.32;;;;;;;;;;4958850;28;91539;-65
2021/12/07 06:38:33;;;;;;;22.27;5.80;;;;;;;;;;4975833;28;93900;-65
2021/12/07 06:41:00;;;;;;;16.65;4.32;;;;;;;;;;4978644;28;93804;-65
2021/12/07 06:43:26;;;;;;;17.05;4.15;;;;;;;;;;4975043;28;94776;-65
2021/12/07 06:45:52;;;;;;;21.67;4.22;;;;;;;;;;4975106;28;93492;-65
2021/12/07 06:48:19;;;;;;;17.30;3.85;;;;;;;;;;4975923;28;93739;-65
2021/12/07 06:50:46;;;;;;;23.95;5.07;;;;;;;;;;4975085;28;93164;-65
2021/12/07 06:53:12;;;;;;;29.67;6.03;;;;;;;;;;4976008;28;94121;-65
2021/12/07 06:55:38;;;;;;;23.85;5.00;;;;;;;;;;4976338;28;92364;-65
2021/12/07 06:58:05;;;;;;;27.70;5.05;;;;;;;;;;4975588;28;93136;-65
2021/12/07 07:00:32;;;;;;;20.42;4.43;;;;;;;;;;4958105;28;91889;-65
2021/12/07 07:02:59;;;;;;;15.57;4.88;;;;;;;;;;4975528;28;92474;-65
2021/12/07 07:05:26;;;;;;;22.27;4.28;;;;;;;;;;4974058;28;92409;-65
2021/12/07 07:07:52;;;;;;;17.63;3.72;;;;;;;;;;4973097;28;95518;-65
2021/12/07 07:10:19;;;;;;;18.70;3.83;;;;;;;;;;4975470;28;95552;-65
2021/12/07 07:12:46;;;;;;;21.55;4.00;;;;;;;;;;4958340;28;93506;-65
2021/12/07 07:15:13;;;;;;;19.83;4.60;;;;;;;;;;4975473;28;92405;-65
2021/12/07 07:17:39;;;;;;;15.68;3.80;;;;;;;;;;4974390;28;93160;-65
2021/12/07 07:20:07;;;;;;;21.15;4.68;;;;;;;;;;4972595;28;92542;-65
2021/12/07 07:22:34;;;;;;;20.98;5.25;;;;;;;;;;4974736;28;92469;-65
2021/12/07 07:25:00;;;;;;;20.38;4.15;;;;;;;;;;4978203;28;91894;-65
2021/12/07 07:27:26;;;;;;;19.23;4.53;;;;;;;;;;4974366;28;92498;-66
2021/12/07 07:29:53;;;;;;;23.13;4.05;;;;;;;;;;4972214;28;92550;-66
2021/12/07 07:32:19;;;;;;;23.52;3.78;;;;;;;;;;4956002;28;95065;-66
2021/12/07 07:34:45;;;;;;;24.48;4.55;;;;;;;;;;4974319;28;92432;-66
2021/12/07 07:37:12;;;;;;;15.80;3.97;;;;;;;;;;4971367;28;93520;-66
2021/12/07 07:39:39;;;;;;;17.95;4.60;;;;;;;;;;4956909;28;93835;-66
2021/12/07 07:42:05;;;;;;;19.10;4.50;;;;;;;;;;4957112;28;92500;-66
2021/12/07 07:44:32;;;;;;;25.52;4.45;;;;;;;;;;4974165;28;93033;-66
2021/12/07 07:46:58;;;;;;;22.77;4.57;;;;;;;;;;4967480;28;93766;-66
2021/12/07 07:49:24;;;;;;;20.10;4.47;;;;;;;;;;4974658;28;93138;-66
2021/12/07 07:51:51;;;;;;;21.00;4.47;;;;;;;;;;4969396;28;93850;-66
2021/12/07 07:54:17;;;;;;;19.42;4.65;;;;;;;;;;4955840;28;92633;-66
2021/12/07 07:56:44;;;;;;;12.43;4.20;;;;;;;;;;4954974;28;94821;-66
2021/12/07 07:59:10;;;;;;;33.45;4.50;;;;;;;;;;4974019;28;93407;-66
2021/12/07 08:01:38;;;;;;;19.08;4.40;;;;;;;;;;4974911;28;92455;-66
2021/12/07 08:04:05;;;;;;;11.52;4.22;;;;;;;;;;4974188;28;92420;-66
2021/12/07 08:06:34;;;;;;;21.40;5.70;;;;;;;;;;4976924;28;92433;-67
2021/12/07 08:09:00;;;;;;;22.35;5.18;;;;;;;;;;4975080;28;93534;-67
2021/12/07 08:11:26;;;;;;;25.83;5.28;;;;;;;;;;4959564;28;93536;-66
2021/12/07 08:13:53;;;;;;;19.88;4.47;;;;;;;;;;4972762;28;91745;-66
2021/12/07 08:16:19;;;;;;;17.27;4.47;;;;;;;;;;4974958;28;92411;-66
2021/12/07 08:18:46;;;;;;;22.05;5.10;;;;;;;;;;4974405;28;93146;-67
2021/12/07 08:21:13;;;;;;;29.05;4.63;;;;;;;;;;4972281;28;94835;-66
2021/12/07 08:23:40;;;;;;;17.60;4.07;;;;;;;;;;4974843;28;95751;-66
2021/12/07 08:26:08;;;;;;;25.20;4.38;;;;;;;;;;4974770;28;93377;-67
2021/12/07 08:28:34;;;;;;;24.67;4.00;;;;;;;;;;4977787;28;92573;-67
2021/12/07 08:31:01;;;;;;;23.98;4.47;;;;;;;;;;4973593;28;93737;-66
2021/12/07 08:33:27;;;;;;;18.20;3.47;;;;;;;;;;4975120;28;92713;-66
2021/12/07 08:35:53;;;;;;;15.55;3.67;;;;;;;;;;4975115;28;93535;-66
2021/12/07 08:38:20;;;;;;;19.70;3.60;;;;;;;;;;4975184;28;91774;-66
2021/12/07 08:40:53;;;;;;;25.15;4.95;;;;;;;;;;4975035;28;92424;-66
2021/12/07 08:43:20;;;;;;;22.27;4.55;;;;;;;;;;4957438;28;92410;-66
2021/12/07 08:45:47;;;;;;;22.48;3.45;;;;;;;;;;4955844;28;95645;-66
2021/12/07 08:48:13;;;;;;;14.80;3.35;;;;;;;;;;4974481;28;92440;-66
2021/12/07 08:50:41;;;;;;;18.88;3.20;;;;;;;;;;4959473;28;92424;-66
2021/12/07 08:53:11;;;;;;;22.75;4.22;;;;;;;;;;4973429;28;92450;-66
2021/12/07 09:01:08;;;;;;;23.80;5.32;;;;;;;;;;4974820;28;92530;-66
2021/12/07 09:03:35;;;;;;;15.95;4.00;;;;;;;;;;4975407;28;91941;-66
2021/12/07 09:06:03;;;;;;;32.67;5.57;;;;;;;;;;4956595;28;93517;-66
2021/12/07 09:08:29;;;;;;;21.33;3.85;;;;;;;;;;4974753;28;93120;-66
2021/12/07 09:10:55;;;;;;;23.17;3.60;;;;;;;;;;4973115;28;94787;-66
2021/12/07 09:13:24;;;;;;;17.33;3.38;;;;;;;;;;4977292;28;93473;-66
2021/12/07 09:15:51;;;;;;;21.17;3.88;;;;;;;;;;4961318;28;93174;-66
2021/12/07 09:18:17;;;;;;;14.93;3.58;;;;;;;;;;4973017;28;93207;-67
2021/12/07 09:20:43;;;;;;;16.27;3.70;;;;;;;;;;4974122;28;92649;-66
2021/12/07 09:23:10;;;;;;;19.15;3.90;;;;;;;;;;4974768;28;92311;-67
2021/12/07 09:25:36;;;;;;;12.40;3.00;;;;;;;;;;4974191;28;92489;-66
2021/12/07 09:28:03;;;;;;;15.52;3.83;;;;;;;;;;4974824;28;91645;-67
2021/12/07 09:30:29;;;;;;;12.77;3.30;;;;;;;;;;4973325;28;92670;-67
2021/12/07 09:32:55;;;;;;;20.95;4.10;;;;;;;;;;4974459;28;93420;-66
2021/12/07 09:35:22;;;;;;;16.80;5.03;;;;;;;;;;4975957;28;94809;-66
2021/12/07 09:37:51;;;;;;;16.85;4.13;;;;;;;;;;4973946;28;93737;-67
2021/12/07 09:40:18;;;;;;;17.83;4.43;;;;;;;;;;4965996;28;92803;-67
2021/12/07 09:42:45;;;;;;;17.30;4.32;;;;;;;;;;4953934;28;94199;-66
2021/12/07 09:45:13;;;;;;;21.48;5.20;;;;;;;;;;4974000;28;94460;-67
2021/12/07 09:47:39;;;;;;;16.92;5.10;;;;;;;;;;4973210;28;93009;-67
2021/12/07 09:50:09;;;;;;;13.32;3.67;;;;;;;;;;4955840;28;92369;-67
2021/12/07 09:52:36;;;;;;;36.80;4.45;;;;;;;;;;4974718;28;93929;-65
2021/12/07 09:55:03;;;;;;;18.02;4.68;;;;;;;;;;4977348;28;92442;-66
2021/12/07 09:57:30;;;;;;;17.90;4.80;;;;;;;;;;4965213;28;93471;-67
2021/12/07 09:59:56;;;;;;;19.00;4.55;;;;;;;;;;4944560;28;94868;-67
2021/12/07 10:02:22;;;;;;;18.45;5.22;;;;;;;;;;4973986;28;97028;-66
2021/12/07 10:04:49;;;;;;;16.75;4.68;;;;;;;;;;4976015;28;93591;-67
2021/12/07 10:07:16;;;;;;;21.92;5.43;;;;;;;;;;4977486;28;92339;-67
2021/12/07 10:09:42;;;;;;;19.05;5.47;;;;;;;;;;4977135;28;93207;-67
2021/12/07 10:12:18;;;;;;;23.42;6.13;;;;;;;;;;4976766;28;92517;-67
2021/12/07 10:14:44;;;;;;;17.42;5.43;;;;;;;;;;4977143;28;92342;-67
2021/12/07 10:17:10;;;;;;;19.95;5.45;;;;;;;;;;4980709;28;93127;-67
2021/12/07 10:19:42;;;;;;;22.20;5.20;;;;;;;;;;4977295;28;92496;-67
2021/12/07 10:22:10;;;;;;;17.38;5.30;;;;;;;;;;4971552;28;93899;-67
2021/12/07 10:24:42;;;;;;;21.98;6.47;;;;;;;;;;4974953;28;96197;-67
2021/12/07 10:27:09;;;;;;;22.67;6.22;;;;;;;;;;4976925;28;92440;-67
2021/12/07 10:29:35;;;;;;;22.42;6.07;;;;;;;;;;4976660;28;93221;-67
2021/12/07 10:32:05;;;;;;;25.45;6.30;;;;;;;;;;4976994;28;93374;-67
2021/12/07 10:34:33;;;;;;;;;;;;;;;;;;4975870;28;92415;-67
2021/12/07 10:37:12;;;;;;;20.10;5.88;;;;;;;;;;4960773;28;121358;-67
2021/12/07 10:39:40;;;;;;;26.15;6.78;;;;;;;;;;4980134;28;92586;-67
2021/12/07 10:42:12;;;;;;;20.67;6.53;;;;;;;;;;4977626;28;94299;-67
2021/12/07 10:45:14;;;;;;;21.60;6.70;;;;;;;;;;4976670;28;92445;-67
2021/12/07 10:47:41;;;;;;;26.10;8.10;;;;;;;;;;4976009;28;92488;-67
2021/12/07 10:50:09;;;;;;;29.55;7.95;;;;;;;;;;4974174;28;95591;-66
2021/12/07 10:52:42;;;;;;;29.83;9.52;;;;;;;;;;4976205;28;92503;-66
2021/12/07 10:55:20;;;;;;;21.80;6.97;;;;;;;;;;4976230;28;92755;-66
2021/12/07 10:57:50;;;;;;;21.42;6.70;;;;;;;;;;4976603;28;93675;-66
2021/12/07 11:00:22;;;;;;;23.13;6.88;;;;;;;;;;4975893;28;93772;-66
2021/12/07 11:02:52;;;;;;;22.25;6.88;;;;;;;;;;4979628;28;92386;-66
2021/12/07 11:05:24;;;;;;;21.48;6.88;;;;;;;;;;4975563;28;93492;-66
2021/12/07 11:07:51;;;;;;;29.83;5.88;;;;;;;;;;4976907;28;91739;-66
2021/12/07 11:10:23;;;;;;;19.40;5.97;;;;;;;;;;4975513;28;92808;-66
2021/12/07 11:13:00;;;;;;;17.58;6.15;;;;;;;;;;4976178;28;92496;-66
2021/12/07 11:15:29;;;;;;;20.35;6.82;;;;;;;;;;4973494;28;94982;-66
2021/12/07 11:17:57;;;;;;;19.63;5.88;;;;;;;;;;4959230;28;96559;-66
2021/12/07 11:20:25;;;;;;;21.15;6.25;;;;;;;;;;4974558;28;92612;-66
2021/12/07 11:23:08;;;;;;;18.88;5.70;;;;;;;;;;4975992;28;92521;-66
2021/12/07 11:31:28;;;;;;;16.30;6.38;;;;;;;;;;4975450;28;93333;-66
2021/12/07 11:34:03;;;;;;;26.65;6.32;;;;;;;;;;4976690;28;94390;-66
2021/12/07 11:36:31;;;;;;;20.88;6.95;;;;;;;;;;4975998;28;92480;-66
2021/12/07 11:38:58;;;;;;;19.98;7.20;;;;;;;;;;4970167;28;92393;-66
2021/12/07 11:41:31;;;;;;;26.55;7.05;;;;;;;;;;4964083;28;96082;-66
2021/12/07 11:44:00;;;;;;;19.90;5.78;;;;;;;;;;4975564;28;92445;-66
2021/12/07 11:46:28;;;;;;;20.17;6.10;;;;;;;;;;4974892;28;94055;-66
2021/12/07 11:49:07;;;;;;;16.60;5.05;;;;;;;;;;4978376;28;94710;-66
2021/12/07 11:51:33;;;;;;;17.98;5.60;;;;;;;;;;4974999;28;93484;-66
2021/12/07 11:53:59;;;;;;;22.15;6.05;;;;;;;;;;4975706;28;93841;-66
2021/12/07 11:56:26;;;;;;;17.13;5.53;;;;;;;;;;4975667;28;92406;-66
2021/12/07 11:58:53;;;;;;;17.48;5.28;;;;;;;;;;4959679;28;93311;-65
2021/12/07 12:01:40;;;;;;;16.25;4.50;;;;;;;;;;4975878;28;94824;-65
2021/12/07 12:04:07;;;;;;;23.08;4.95;;;;;;;;;;4975856;28;92606;-65
2021/12/07 12:06:33;;;;;;;17.77;4.57;;;;;;;;;;4973658;28;94878;-65
2021/12/07 12:09:00;;;;;;;20.67;4.97;;;;;;;;;;4977058;28;92596;-65
2021/12/07 12:11:44;;;;;;;13.20;4.20;;;;;;;;;;4974758;28;93346;-65
2021/12/07 12:14:23;;;;;;;19.55;3.72;;;;;;;;;;4956507;28;93686;-65
2021/12/07 12:17:09;;;;;;;18.75;4.35;;;;;;;;;;4975103;28;92657;-65
2021/12/07 12:19:54;;;;;;;12.88;4.10;;;;;;;;;;4975411;28;92415;-65
2021/12/07 12:22:32;;;;;;;11.75;3.47;;;;;;;;;;4969251;28;93459;-66
2021/12/07 12:25:00;;;;;;;18.27;5.22;;;;;;;;;;4975570;28;91722;-65
2021/12/07 12:27:32;;;;;;;12.75;4.10;;;;;;;;;;4974286;28;92514;-65
2021/12/07 12:30:00;;;;;;;12.77;4.30;;;;;;;;;;4974982;28;92469;-65
2021/12/07 12:32:35;;;;;;;13.80;3.78;;;;;;;;;;4976609;28;94878;-64
2021/12/07 12:35:04;;;;;;;22.20;4.20;;;;;;;;;;4975007;28;92502;-64
2021/12/07 12:37:31;;;;;;;13.75;4.32;;;;;;;;;;4974446;28;92283;-64
2021/12/07 12:39:59;;;;;;;18.02;4.32;;;;;;;;;;4974787;28;92480;-65
2021/12/07 12:42:29;;;;;;;18.30;4.55;;;;;;;;;;4957734;28;92453;-65
2021/12/07 12:44:59;;;;;;;15.00;3.78;;;;;;;;;;4974961;28;92458;-65
2021/12/07 12:47:25;;;;;;;;;;;;;;;;;;4958093;28;92998;-65
2021/12/07 12:49:52;;;;;;;8.10;2.95;;;;;;;;;;4975560;28;122934;-65
2021/12/07 12:52:35;;;;;;;13.00;4.13;;;;;;;;;;4974540;28;92309;-65
2021/12/07 12:55:02;;;;;;;19.80;4.07;;;;;;;;;;4977636;28;92314;-68
2021/12/07 12:57:28;;;;;;;16.40;3.78;;;;;;;;;;4968855;28;94814;-68
2021/12/07 12:59:55;;;;;;;15.90;3.72;;;;;;;;;;4972182;28;94313;-68
2021/12/07 13:02:27;;;;;;;20.38;4.93;;;;;;;;;;4957956;28;92418;-68
2021/12/07 13:05:04;;;;;;;17.73;4.90;;;;;;;;;;4974631;28;92628;-68
2021/12/07 13:07:31;;;;;;;20.38;3.95;;;;;;;;;;4974311;28;93780;-68
2021/12/07 13:09:59;;;;;;;16.95;4.30;;;;;;;;;;4973869;28;93847;-67
2021/12/07 13:12:31;;;;;;;19.85;4.32;;;;;;;;;;4956614;28;92622;-67
2021/12/07 13:15:18;;;;;;;14.35;4.25;;;;;;;;;;4975499;28;94283;-68
2021/12/07 13:17:48;;;;;;;12.82;4.75;;;;;;;;;;4977239;28;93694;-67
2021/12/07 13:20:20;;;;;;;22.93;5.10;;;;;;;;;;4974786;28;94348;-67
2021/12/07 13:22:46;;;;;;;15.43;4.32;;;;;;;;;;4958819;28;97693;-67
2021/12/07 13:25:17;;;;;;;14.32;4.50;;;;;;;;;;4969490;28;92551;-67
2021/12/07 13:27:56;;;;;;;16.75;4.20;;;;;;;;;;4973594;28;93034;-66
2021/12/07 13:30:22;;;;;;;18.55;3.83;;;;;;;;;;4973358;28;93931;-66
2021/12/07 13:33:02;;;;;;;10.77;3.67;;;;;;;;;;4936661;28;92466;-66
2021/12/07 13:35:32;;;;;;;20.23;4.10;;;;;;;;;;4945970;28;93652;-68
2021/12/07 13:38:12;;;;;;;8.23;3.27;;;;;;;;;;4974940;28;92749;-66
2021/12/07 13:40:39;;;;;;;20.15;4.82;;;;;;;;;;4980810;28;91543;-67
2021/12/07 13:43:05;;;;;;;16.23;4.25;;;;;;;;;;4963825;28;92465;-67
2021/12/07 13:45:32;;;;;;;21.70;4.78;;;;;;;;;;4975406;28;92338;-66
2021/12/07 13:48:01;;;;;;;18.50;4.47;;;;;;;;;;4974664;28;94731;-67
2021/12/07 13:50:29;;;;;;;22.38;4.75;;;;;;;;;;4958354;28;94740;-68
2021/12/07 13:52:56;;;;;;;23.75;4.70;;;;;;;;;;4976833;28;92803;-68
2021/12/07 13:55:24;;;;;;;12.75;4.35;;;;;;;;;;4953079;28;96476;-67
2021/12/07 13:57:52;;;;;;;17.15;4.40;;;;;;;;;;4969498;28;92810;-68
2021/12/07 14:00:18;;;;;;;12.98;3.42;;;;;;;;;;4977481;28;92291;-67
2021/12/07 14:02:49;;;;;;;17.50;4.63;;;;;;;;;;4976905;28;92430;-67
2021/12/07 14:05:17;;;;;;;16.90;4.05;;;;;;;;;;4952628;28;91831;-67
2021/12/07 14:07:44;;;;;;;17.17;4.13;;;;;;;;;;4958214;28;92376;-67
2021/12/07 14:10:13;;;;;;;16.63;4.07;;;;;;;;;;4966631;28;93235;-67
2021/12/07 14:12:39;;;;;;;14.18;4.20;;;;;;;;;;4971155;28;95056;-67
2021/12/07 14:15:07;;;;;;;20.80;4.85;;;;;;;;;;4972250;28;94492;-67
2021/12/07 14:17:41;;;;;;;24.77;4.80;;;;;;;;;;4959407;28;94075;-67
2021/12/07 14:20:08;;;;;;;25.42;5.13;;;;;;;;;;4967986;28;92713;-67
2021/12/07 14:22:34;;;;;;;17.83;5.30;;;;;;;;;;4975867;28;93220;-67
2021/12/07 14:25:00;;;;;;;16.77;4.13;;;;;;;;;;4974910;28;92466;-66
2021/12/07 14:27:27;;;;;;;20.38;4.88;;;;;;;;;;4959895;28;92981;-67
2021/12/07 14:29:53;;;;;;;17.73;5.35;;;;;;;;;;4974325;28;93054;-67
2021/12/07 14:32:20;;;;;;;20.92;5.10;;;;;;;;;;4972825;28;92374;-67
2021/12/07 14:34:46;;;;;;;19.60;5.53;;;;;;;;;;4977245;28;93267;-67
2021/12/07 14:37:12;;;;;;;20.08;4.63;;;;;;;;;;4975039;28;94745;-67
2021/12/07 14:39:42;;;;;;;18.35;4.47;;;;;;;;;;4976442;28;92382;-67
2021/12/07 14:42:18;;;;;;;19.40;4.40;;;;;;;;;;4977035;28;92373;-67
2021/12/07 14:44:46;;;;;;;14.43;4.03;;;;;;;;;;4980709;28;92453;-67
2021/12/07 14:47:12;;;;;;;19.63;4.20;;;;;;;;;;4959942;28;95357;-67
2021/12/07 14:49:40;;;;;;;12.10;3.63;;;;;;;;;;4974294;28;92336;-66
2021/12/07 14:52:10;;;;;;;16.13;4.35;;;;;;;;;;4976596;28;92545;-67
2021/12/07 14:54:37;;;;;;;12.82;4.63;;;;;;;;;;4977342;28;91907;-67
2021/12/07 14:57:03;;;;;;;16.55;4.10;;;;;;;;;;4967346;28;93776;-67
2021/12/07 14:59:30;;;;;;;21.77;4.07;;;;;;;;;;4958250;28;92416;-67
2021/12/07 15:01:57;;;;;;;15.90;4.25;;;;;;;;;;4966976;28;95510;-66
2021/12/07 15:04:24;;;;;;;15.77;4.00;;;;;;;;;;4954938;28;94013;-67
2021/12/07 15:06:55;;;;;;;11.73;4.60;;;;;;;;;;4979059;28;92388;-67
2021/12/07 15:09:22;;;;;;;23.42;6.32;;;;;;;;;;4982029;28;93644;-67
2021/12/07 15:11:49;;;;;;;24.05;4.53;;;;;;;;;;4975229;28;92475;-66
2021/12/07 15:14:18;;;;;;;16.63;4.18;;;;;;;;;;4992768;28;92306;-66
2021/12/07 15:16:46;;;;;;;16.27;4.97;;;;;;;;;;4993980;28;92359;-66
2021/12/07 15:19:13;;;;;;;12.45;4.30;;;;;;;;;;4993679;28;91213;-67
2021/12/07 15:21:39;;;;;;;16.10;4.47;;;;;;;;;;4992018;28;92357;-67
2021/12/07 15:24:13;;;;;;;20.42;4.00;;;;;;;;;;4985577;28;93369;-66
2021/12/07 15:26:39;;;;;;;23.50;4.85;;;;;;;;;;4977385;28;94896;-66
2021/12/07 15:29:08;;;;;;;18.95;4.60;;;;;;;;;;4980729;28;96996;-67
2021/12/07 15:31:37;;;;;;;16.25;4.63;;;;;;;;;;4976969;28;92370;-66
2021/12/07 15:34:04;;;;;;;16.30;4.45;;;;;;;;;;4976856;28;93222;-66
2021/12/07 15:36:31;;;;;;;15.10;4.32;;;;;;;;;;4958939;28;92551;-66
2021/12/07 15:39:09;;;;;;;16.13;3.65;;;;;;;;;;4976899;28;92290;-66
2021/12/07 15:41:36;;;;;;;12.60;3.40;;;;;;;;;;4976169;28;93230;-66
2021/12/07 15:44:03;;;;;;;14.60;3.95;;;;;;;;;;4976064;28;92664;-66
2021/12/07 15:46:30;;;;;;;14.43;3.33;;;;;;;;;;4975091;28;92415;-66
2021/12/07 15:49:00;;;;;;;19.15;4.43;;;;;;;;;;4975309;28;92428;-66
2021/12/07 15:51:26;;;;;;;15.63;3.38;;;;;;;;;;4976907;28;94976;-67
2021/12/07 15:53:54;;;;;;;16.13;3.85;;;;;;;;;;4975903;28;96136;-66
2021/12/07 15:56:21;;;;;;;15.73;4.75;;;;;;;;;;4974423;28;93328;-66
2021/12/07 15:58:47;;;;;;;29.40;6.18;;;;;;;;;;4958058;28;92450;-66
2021/12/07 16:01:14;;;;;;;26.85;5.38;;;;;;;;;;4974570;28;92978;-66
2021/12/07 16:03:42;;;;;;;19.00;4.05;;;;;;;;;;4956729;28;95111;-66
2021/12/07 16:06:34;;;;;;;18.23;4.13;;;;;;;;;;4969133;28;92455;-66
2021/12/07 16:09:13;;;;;;;17.85;4.55;;;;;;;;;;4970179;28;94410;-65
2021/12/07 16:11:39;;;;;;;41.08;5.60;;;;;;;;;;4955483;28;92803;-66
2021/12/07 16:14:05;;;;;;;21.77;3.83;;;;;;;;;;4955874;28;92946;-65
2021/12/07 16:16:32;;;;;;;25.60;5.28;;;;;;;;;;4952730;28;96032;-66
2021/12/07 16:18:58;;;;;;;37.03;7.35;;;;;;;;;;4966178;28;92965;-66
2021/12/07 16:21:30;;;;;;;63.80;6.90;;;;;;;;;;4975188;28;92388;-66
2021/12/07 16:23:58;;;;;;;17.15;4.25;;;;;;;;;;4974744;28;93488;-66
2021/12/07 16:26:24;;;;;;;20.58;5.07;;;;;;;;;;4975465;28;92577;-66
2021/12/07 16:28:55;;;;;;;25.38;3.97;;;;;;;;;;4957870;28;93625;-65
2021/12/07 16:31:22;;;;;;;14.30;4.00;;;;;;;;;;4957263;28;92556;-65